KQA601 HKJK-HKKI
Flight info
| Callsign | KQA601 |
|---|---|
| Flight time | 0h 33m |
| Altitude | 24000 |
| Route | ANTUK2D APKUB DCT NEVON NEVON1A |
| Aircraft | B738/M-SDE1E2E3FGHIJ2J3J4J5M1RWXYZ/LB1D1 |
Departure
| Time | 2026-04-20 19:32 |
|---|---|
| Airport | Jomo Kenyatta International Airport (HKJK) |
Arrival
| Time | 2026-04-20 20:05 |
|---|---|
| Airport | Kisumu International Airport (HKKI) |
| Time | Latitude | Longitude | Altitude | Speed | Heading |
|---|---|---|---|---|---|
| 2026-04-20 19:19 | -1.32941 | 36.92160 | 5319 ft | 0 kts | 285° |
| 2026-04-20 19:26 | -1.32947 | 36.92182 | 5313 ft | 4 kts | 284° |
| 2026-04-20 19:26 | -1.32953 | 36.92206 | 5314 ft | 4 kts | 289° |
| 2026-04-20 19:26 | -1.32966 | 36.92224 | 5313 ft | 4 kts | 348° |
| 2026-04-20 19:27 | -1.32990 | 36.92222 | 5318 ft | 2 kts | 15° |
| 2026-04-20 19:27 | -1.32995 | 36.92221 | 5320 ft | 1 kts | 15° |
| 2026-04-20 19:28 | -1.32995 | 36.92220 | 5320 ft | 0 kts | 15° |
| 2026-04-20 19:28 | -1.32993 | 36.92221 | 5320 ft | 1 kts | 15° |
| 2026-04-20 19:29 | -1.32982 | 36.92224 | 5317 ft | 4 kts | 15° |
| 2026-04-20 19:29 | -1.32928 | 36.92245 | 5316 ft | 12 kts | 26° |
| 2026-04-20 19:29 | -1.32838 | 36.92238 | 5316 ft | 17 kts | 323° |
| 2026-04-20 19:29 | -1.32794 | 36.92152 | 5326 ft | 17 kts | 248° |
| 2026-04-20 19:30 | -1.32845 | 36.92051 | 5332 ft | 16 kts | 268° |
| 2026-04-20 19:30 | -1.32825 | 36.91921 | 5334 ft | 22 kts | 278° |
| 2026-04-20 19:30 | -1.32855 | 36.91801 | 5338 ft | 17 kts | 238° |
| 2026-04-20 19:30 | -1.32838 | 36.91706 | 5335 ft | 18 kts | 324° |
| 2026-04-20 19:31 | -1.32732 | 36.91677 | 5337 ft | 17 kts | 33° |
| 2026-04-20 19:31 | -1.32546 | 36.91928 | 5323 ft | 79 kts | 53° |
| 2026-04-20 19:31 | -1.32097 | 36.92540 | 5320 ft | 139 kts | 54° |
| 2026-04-20 19:31 | -1.31419 | 36.93479 | 5314 ft | 188 kts | 55° |
| 2026-04-20 19:32 | -1.30660 | 36.94571 | 6007 ft | 189 kts | 57° |
| 2026-04-20 19:32 | -1.30233 | 36.95738 | 7061 ft | 171 kts | 91° |
| 2026-04-20 19:32 | -1.30572 | 36.96857 | 7695 ft | 181 kts | 124° |
| 2026-04-20 19:32 | -1.31657 | 36.97659 | 7891 ft | 213 kts | 160° |
| 2026-04-20 19:33 | -1.33220 | 36.97666 | 8075 ft | 244 kts | 195° |
| 2026-04-20 19:33 | -1.34689 | 36.96662 | 8249 ft | 278 kts | 232° |
| 2026-04-20 19:33 | -1.35434 | 36.94799 | 8643 ft | 299 kts | 261° |
| 2026-04-20 19:33 | -1.35752 | 36.92724 | 9364 ft | 305 kts | 259° |
| 2026-04-20 19:34 | -1.36217 | 36.90637 | 10135 ft | 311 kts | 255° |
| 2026-04-20 19:34 | -1.36802 | 36.88529 | 10698 ft | 323 kts | 252° |
| 2026-04-20 19:34 | -1.37468 | 36.86292 | 10879 ft | 348 kts | 255° |
| 2026-04-20 19:34 | -1.37679 | 36.83858 | 11318 ft | 360 kts | 277° |
| 2026-04-20 19:35 | -1.37004 | 36.81438 | 11957 ft | 361 kts | 291° |
| 2026-04-20 19:35 | -1.36080 | 36.79119 | 12165 ft | 362 kts | 293° |
| 2026-04-20 19:35 | -1.35098 | 36.76781 | 12198 ft | 364 kts | 294° |
| 2026-04-20 19:35 | -1.34112 | 36.74457 | 12182 ft | 363 kts | 294° |
| 2026-04-20 19:36 | -1.33128 | 36.72118 | 12332 ft | 369 kts | 293° |
| 2026-04-20 19:36 | -1.32139 | 36.69745 | 12266 ft | 368 kts | 293° |
| 2026-04-20 19:36 | -1.31175 | 36.67410 | 12209 ft | 364 kts | 293° |
| 2026-04-20 19:36 | -1.30218 | 36.65078 | 12177 ft | 359 kts | 293° |
| 2026-04-20 19:37 | -1.29270 | 36.62758 | 12168 ft | 362 kts | 292° |
| 2026-04-20 19:37 | -1.28315 | 36.60420 | 12165 ft | 364 kts | 292° |
| 2026-04-20 19:37 | -1.27363 | 36.58085 | 12146 ft | 364 kts | 292° |
| 2026-04-20 19:37 | -1.26405 | 36.55736 | 12147 ft | 364 kts | 292° |
| 2026-04-20 19:38 | -1.25450 | 36.53391 | 12141 ft | 365 kts | 292° |
| 2026-04-20 19:38 | -1.24494 | 36.51044 | 12126 ft | 364 kts | 292° |
| 2026-04-20 19:38 | -1.23540 | 36.48703 | 12135 ft | 363 kts | 292° |
| 2026-04-20 19:38 | -1.22589 | 36.46370 | 12131 ft | 362 kts | 292° |
| 2026-04-20 19:39 | -1.21640 | 36.44043 | 12140 ft | 361 kts | 292° |
| 2026-04-20 19:39 | -1.20706 | 36.41749 | 12139 ft | 360 kts | 292° |
| 2026-04-20 19:39 | -1.19763 | 36.39436 | 12138 ft | 360 kts | 293° |
| 2026-04-20 19:39 | -1.18819 | 36.37119 | 12137 ft | 360 kts | 292° |
| 2026-04-20 19:40 | -1.17874 | 36.34802 | 12140 ft | 360 kts | 293° |
| 2026-04-20 19:40 | -1.16931 | 36.32487 | 12133 ft | 360 kts | 293° |
| 2026-04-20 19:40 | -1.15986 | 36.30169 | 12129 ft | 359 kts | 293° |
| 2026-04-20 19:40 | -1.15043 | 36.27855 | 12133 ft | 360 kts | 293° |
| 2026-04-20 19:41 | -1.14100 | 36.25542 | 12114 ft | 360 kts | 293° |
| 2026-04-20 19:41 | -1.13157 | 36.23228 | 12127 ft | 360 kts | 293° |
| 2026-04-20 19:41 | -1.12212 | 36.20910 | 12138 ft | 360 kts | 293° |
| 2026-04-20 19:41 | -1.11266 | 36.18590 | 12142 ft | 361 kts | 293° |
| 2026-04-20 19:42 | -1.10318 | 36.16266 | 12137 ft | 362 kts | 293° |
| 2026-04-20 19:42 | -1.09293 | 36.13968 | 12124 ft | 363 kts | 301° |
| 2026-04-20 19:42 | -1.07876 | 36.11860 | 12554 ft | 368 kts | 307° |
| 2026-04-20 19:42 | -1.06356 | 36.09805 | 13354 ft | 367 kts | 308° |
| 2026-04-20 19:43 | -1.04818 | 36.07760 | 14078 ft | 370 kts | 308° |
| 2026-04-20 19:43 | -1.03267 | 36.05690 | 14667 ft | 374 kts | 308° |
| 2026-04-20 19:43 | -1.01708 | 36.03592 | 15258 ft | 378 kts | 308° |
| 2026-04-20 19:43 | -1.00145 | 36.01472 | 15849 ft | 381 kts | 308° |
| 2026-04-20 19:44 | -0.98569 | 35.99321 | 16445 ft | 385 kts | 308° |
| 2026-04-20 19:44 | -0.96983 | 35.97148 | 17049 ft | 388 kts | 308° |
| 2026-04-20 19:44 | -0.95386 | 35.94954 | 17629 ft | 392 kts | 308° |
| 2026-04-20 19:44 | -0.93778 | 35.92743 | 18211 ft | 395 kts | 308° |
| 2026-04-20 19:45 | -0.92154 | 35.90510 | 18727 ft | 399 kts | 308° |
| 2026-04-20 19:45 | -0.90516 | 35.88256 | 19225 ft | 402 kts | 307° |
| 2026-04-20 19:45 | -0.88870 | 35.85990 | 19719 ft | 404 kts | 307° |
| 2026-04-20 19:45 | -0.87215 | 35.83713 | 20097 ft | 406 kts | 307° |
| 2026-04-20 19:46 | -0.85529 | 35.81394 | 20133 ft | 417 kts | 307° |
| 2026-04-20 19:46 | -0.83811 | 35.79031 | 20126 ft | 423 kts | 307° |
| 2026-04-20 19:46 | -0.82085 | 35.76656 | 20130 ft | 421 kts | 307° |
| 2026-04-20 19:46 | -0.80372 | 35.74298 | 20127 ft | 420 kts | 307° |
| 2026-04-20 19:47 | -0.78658 | 35.71939 | 20123 ft | 418 kts | 307° |
| 2026-04-20 19:47 | -0.76949 | 35.69587 | 20118 ft | 418 kts | 307° |
| 2026-04-20 19:47 | -0.75240 | 35.67237 | 20122 ft | 418 kts | 307° |
| 2026-04-20 19:47 | -0.73531 | 35.64886 | 20119 ft | 419 kts | 307° |
| 2026-04-20 19:48 | -0.72395 | 35.63323 | 20116 ft | 419 kts | 307° |
| 2026-04-20 19:48 | -0.70682 | 35.60967 | 20110 ft | 420 kts | 307° |
| 2026-04-20 19:48 | -0.68968 | 35.58610 | 20109 ft | 420 kts | 307° |
| 2026-04-20 19:48 | -0.67251 | 35.56249 | 20111 ft | 420 kts | 307° |
| 2026-04-20 19:49 | -0.65529 | 35.53879 | 20100 ft | 421 kts | 307° |
| 2026-04-20 19:49 | -0.63811 | 35.51517 | 20098 ft | 421 kts | 307° |
| 2026-04-20 19:49 | -0.62087 | 35.49144 | 20096 ft | 421 kts | 307° |
| 2026-04-20 19:49 | -0.60367 | 35.46778 | 20088 ft | 421 kts | 307° |
| 2026-04-20 19:50 | -0.58648 | 35.44415 | 20085 ft | 421 kts | 307° |
| 2026-04-20 19:50 | -0.56930 | 35.42051 | 20084 ft | 420 kts | 307° |
| 2026-04-20 19:50 | -0.55227 | 35.39709 | 20062 ft | 413 kts | 307° |
| 2026-04-20 19:50 | -0.53562 | 35.37416 | 20055 ft | 398 kts | 307° |
| 2026-04-20 19:51 | -0.51949 | 35.35197 | 20064 ft | 392 kts | 307° |
| 2026-04-20 19:51 | -0.50355 | 35.33004 | 20066 ft | 391 kts | 307° |
| 2026-04-20 19:51 | -0.48757 | 35.30807 | 20013 ft | 392 kts | 307° |
| 2026-04-20 19:51 | -0.47148 | 35.28595 | 19667 ft | 392 kts | 307° |
| 2026-04-20 19:52 | -0.45548 | 35.26394 | 19287 ft | 390 kts | 307° |
| 2026-04-20 19:52 | -0.43969 | 35.24204 | 18889 ft | 388 kts | 305° |
| 2026-04-20 19:52 | -0.42830 | 35.21806 | 18403 ft | 390 kts | 286° |
| 2026-04-20 19:52 | -0.42161 | 35.19140 | 17847 ft | 390 kts | 284° |
| 2026-04-20 19:53 | -0.41563 | 35.16539 | 17391 ft | 388 kts | 283° |
| 2026-04-20 19:53 | -0.40969 | 35.13925 | 16952 ft | 385 kts | 283° |
| 2026-04-20 19:53 | -0.40361 | 35.11283 | 16511 ft | 383 kts | 283° |
| 2026-04-20 19:53 | -0.39758 | 35.08708 | 16088 ft | 380 kts | 284° |
| 2026-04-20 19:54 | -0.39159 | 35.06181 | 15676 ft | 377 kts | 284° |
| 2026-04-20 19:54 | -0.38542 | 35.03604 | 15253 ft | 375 kts | 284° |
| 2026-04-20 19:54 | -0.37945 | 35.01123 | 14842 ft | 373 kts | 284° |
| 2026-04-20 19:54 | -0.37337 | 34.98604 | 14410 ft | 372 kts | 284° |
| 2026-04-20 19:55 | -0.36732 | 34.96098 | 13987 ft | 370 kts | 284° |
| 2026-04-20 19:55 | -0.36131 | 34.93609 | 13549 ft | 368 kts | 284° |
| 2026-04-20 19:55 | -0.35533 | 34.91130 | 13117 ft | 365 kts | 284° |
| 2026-04-20 19:55 | -0.34939 | 34.88670 | 12699 ft | 362 kts | 284° |
| 2026-04-20 19:56 | -0.34352 | 34.86238 | 12291 ft | 359 kts | 284° |
| 2026-04-20 19:56 | -0.33767 | 34.83817 | 11890 ft | 357 kts | 284° |
| 2026-04-20 19:56 | -0.33188 | 34.81419 | 11494 ft | 354 kts | 284° |
| 2026-04-20 19:56 | -0.32614 | 34.79039 | 11105 ft | 351 kts | 284° |
| 2026-04-20 19:57 | -0.32043 | 34.76675 | 10704 ft | 349 kts | 284° |
| 2026-04-20 19:57 | -0.31479 | 34.74340 | 10500 ft | 341 kts | 284° |
| 2026-04-20 19:57 | -0.30931 | 34.72068 | 10326 ft | 332 kts | 284° |
| 2026-04-20 19:57 | -0.30397 | 34.69855 | 10190 ft | 323 kts | 284° |
| 2026-04-20 19:58 | -0.29879 | 34.67708 | 10053 ft | 314 kts | 284° |
| 2026-04-20 19:58 | -0.29374 | 34.65619 | 9975 ft | 303 kts | 284° |
| 2026-04-20 19:58 | -0.28887 | 34.63600 | 9629 ft | 302 kts | 284° |
| 2026-04-20 19:58 | -0.28389 | 34.61541 | 9247 ft | 304 kts | 284° |
| 2026-04-20 19:59 | -0.27664 | 34.59597 | 9055 ft | 296 kts | 304° |
| 2026-04-20 19:59 | -0.26284 | 34.58159 | 9017 ft | 279 kts | 326° |
| 2026-04-20 19:59 | -0.24622 | 34.57349 | 9141 ft | 250 kts | 341° |
| 2026-04-20 19:59 | -0.23070 | 34.56775 | 9080 ft | 228 kts | 341° |
| 2026-04-20 20:00 | -0.21646 | 34.56251 | 8970 ft | 209 kts | 342° |
| 2026-04-20 20:00 | -0.20312 | 34.55758 | 8680 ft | 201 kts | 341° |
| 2026-04-20 20:00 | -0.18963 | 34.55499 | 8200 ft | 199 kts | 11° |
| 2026-04-20 20:00 | -0.17769 | 34.56160 | 7517 ft | 204 kts | 53° |
| 2026-04-20 20:01 | -0.16954 | 34.57342 | 7008 ft | 207 kts | 56° |
| 2026-04-20 20:01 | -0.16197 | 34.58527 | 6717 ft | 199 kts | 62° |
| 2026-04-20 20:01 | -0.15558 | 34.59721 | 6451 ft | 191 kts | 63° |
| 2026-04-20 20:01 | -0.14954 | 34.60877 | 6186 ft | 184 kts | 63° |
| 2026-04-20 20:02 | -0.14374 | 34.61977 | 5939 ft | 173 kts | 63° |
| 2026-04-20 20:02 | -0.13828 | 34.63010 | 5743 ft | 164 kts | 63° |
| 2026-04-20 20:02 | -0.13304 | 34.64004 | 5497 ft | 159 kts | 62° |
| 2026-04-20 20:02 | -0.12796 | 34.64967 | 5304 ft | 154 kts | 62° |
| 2026-04-20 20:03 | -0.12301 | 34.65904 | 5112 ft | 157 kts | 62° |
| 2026-04-20 20:03 | -0.11782 | 34.66887 | 4885 ft | 159 kts | 61° |
| 2026-04-20 20:03 | -0.11271 | 34.67854 | 4638 ft | 159 kts | 61° |
| 2026-04-20 20:03 | -0.10771 | 34.68804 | 4437 ft | 152 kts | 60° |
| 2026-04-20 20:04 | -0.10279 | 34.69735 | 4208 ft | 147 kts | 59° |
| 2026-04-20 20:04 | -0.09826 | 34.70600 | 3956 ft | 136 kts | 60° |
| 2026-04-20 20:04 | -0.09393 | 34.71405 | 3784 ft | 122 kts | 62° |
| 2026-04-20 20:04 | -0.09063 | 34.72019 | 3782 ft | 78 kts | 62° |
| 2026-04-20 20:05 | -0.08824 | 34.72462 | 3781 ft | 68 kts | 61° |
| 2026-04-20 20:05 | -0.08641 | 34.72799 | 3784 ft | 33 kts | 60° |
| 2026-04-20 20:05 | -0.08549 | 34.72832 | 3785 ft | 15 kts | 331° |
| 2026-04-20 20:05 | -0.08471 | 34.72793 | 3780 ft | 11 kts | 336° |
| 2026-04-20 20:06 | -0.08403 | 34.72757 | 3779 ft | 11 kts | 330° |
| 2026-04-20 20:06 | -0.08346 | 34.72752 | 3776 ft | 8 kts | 41° |
| 2026-04-20 20:06 | -0.08315 | 34.72799 | 3776 ft | 8 kts | 62° |
| 2026-04-20 20:06 | -0.08290 | 34.72844 | 3784 ft | 7 kts | 54° |
| 2026-04-20 20:07 | -0.08267 | 34.72886 | 3785 ft | 6 kts | 62° |
| 2026-04-20 20:07 | -0.08260 | 34.72900 | 3779 ft | 0 kts | 64° |